createdAt,value
2022-08-31T00:00:52.475Z,88.88
2022-08-31T00:01:52.476Z,88.68
2022-08-31T00:02:52.431Z,88.57
2022-08-31T00:03:52.419Z,88.68
2022-08-31T00:04:52.466Z,88.78
2022-08-31T00:05:52.417Z,88.68
2022-08-31T00:06:53.930Z,88.98
2022-08-31T00:07:52.671Z,88.88
2022-08-31T00:08:52.362Z,88.88
2022-08-31T00:09:52.351Z,88.98
2022-08-31T00:10:52.365Z,88.98
2022-08-31T00:11:52.350Z,88.98
2022-08-31T00:12:52.344Z,89.12
2022-08-31T00:13:53.309Z,89.08
2022-08-31T00:14:52.294Z,88.98
2022-08-31T00:15:52.282Z,89.39
2022-08-31T00:16:52.336Z,89.43
2022-08-31T00:17:52.282Z,89.18
2022-08-31T00:18:52.250Z,89.18
2022-08-31T00:19:52.236Z,89.48
2022-08-31T00:20:52.227Z,90.03
2022-08-31T00:21:52.216Z,89.53
2022-08-31T00:22:52.229Z,89.94
2022-08-31T00:23:52.212Z,89.53
2022-08-31T00:24:52.182Z,89.53
2022-08-31T00:25:52.169Z,89.32
2022-08-31T00:26:52.161Z,89.94
2022-08-31T00:27:52.157Z,90.34
2022-08-31T00:28:52.159Z,90.14
2022-08-31T00:29:52.124Z,90.24
2022-08-31T00:30:52.116Z,90.14
2022-08-31T00:31:52.207Z,90.24
2022-08-31T00:32:52.091Z,90.75
2022-08-31T00:33:52.084Z,89.83
2022-08-31T00:34:52.071Z,90.84
2022-08-31T00:35:52.057Z,90.64
2022-08-31T00:36:52.067Z,91.25
2022-08-31T00:37:52.033Z,91.30
2022-08-31T00:38:52.043Z,90.69
2022-08-31T00:39:52.014Z,90.48
2022-08-31T00:40:52.088Z,90.69
2022-08-31T00:41:51.988Z,91.19
2022-08-31T00:42:51.981Z,91.50
2022-08-31T00:43:51.985Z,91.70
2022-08-31T00:44:51.958Z,91.19
2022-08-31T00:45:51.962Z,91.39
2022-08-31T00:46:51.933Z,91.30
2022-08-31T00:47:51.944Z,91.50
2022-08-31T00:48:51.911Z,91.60
2022-08-31T00:49:51.900Z,91.80
2022-08-31T00:50:51.888Z,91.50
2022-08-31T00:51:51.894Z,91.60
2022-08-31T00:52:51.865Z,91.60
2022-08-31T00:53:52.525Z,91.39
2022-08-31T00:54:51.862Z,90.89
2022-08-31T00:55:51.829Z,91.09
2022-08-31T00:56:51.821Z,91.39
2022-08-31T00:57:51.830Z,91.50
2022-08-31T00:58:54.752Z,91.60
2022-08-31T00:59:51.786Z,92.10
2022-08-31T01:00:51.878Z,91.19
2022-08-31T01:01:51.891Z,91.19
2022-08-31T01:02:51.773Z,91.50
2022-08-31T01:03:51.741Z,91.39
2022-08-31T01:04:51.731Z,91.19
2022-08-31T01:05:51.741Z,91.39
2022-08-31T01:06:51.707Z,91.19
2022-08-31T01:07:52.010Z,91.44
2022-08-31T01:08:51.686Z,91.54
2022-08-31T01:09:52.700Z,91.74
2022-08-31T01:10:51.662Z,91.74
2022-08-31T01:11:51.694Z,92.35
2022-08-31T01:12:51.642Z,92.86
2022-08-31T01:13:51.630Z,92.65
2022-08-31T01:14:51.667Z,92.65
2022-08-31T01:15:54.032Z,92.35
2022-08-31T01:16:51.629Z,92.76
2022-08-31T01:17:51.580Z,92.65
2022-08-31T01:18:51.570Z,93.26
2022-08-31T01:19:51.580Z,93.16
2022-08-31T01:20:51.554Z,93.16
2022-08-31T01:21:51.535Z,93.71
2022-08-31T01:22:51.532Z,93.71
2022-08-31T01:23:51.536Z,93.30
2022-08-31T01:24:51.503Z,93.41
2022-08-31T01:25:51.490Z,93.71
2022-08-31T01:26:55.579Z,93.57
2022-08-31T01:27:51.509Z,93.37
2022-08-31T01:28:51.460Z,93.26
2022-08-31T01:29:51.490Z,93.16
2022-08-31T01:30:51.451Z,93.57
2022-08-31T01:31:51.541Z,93.61
2022-08-31T01:32:51.413Z,93.46
2022-08-31T01:33:51.401Z,93.21
2022-08-31T01:34:51.418Z,93.57
2022-08-31T01:35:51.400Z,93.87
2022-08-31T01:36:51.467Z,93.26
2022-08-31T01:37:51.388Z,93.46
2022-08-31T01:38:53.285Z,93.67
2022-08-31T01:39:51.333Z,93.51
2022-08-31T01:40:51.344Z,93.71
2022-08-31T01:41:51.310Z,93.81
2022-08-31T01:42:51.300Z,93.71
2022-08-31T01:43:51.288Z,93.71
2022-08-31T01:44:51.299Z,94.22
2022-08-31T01:45:51.291Z,94.83
2022-08-31T01:46:51.293Z,93.91
2022-08-31T01:47:51.247Z,94.83
2022-08-31T01:48:51.232Z,94.73
2022-08-31T01:49:51.240Z,94.42
2022-08-31T01:50:51.228Z,94.32
2022-08-31T01:51:51.201Z,94.67
2022-08-31T01:52:51.184Z,94.42
2022-08-31T01:53:51.174Z,94.42
2022-08-31T01:54:51.182Z,94.57
2022-08-31T01:55:51.151Z,94.67
2022-08-31T01:56:51.163Z,94.57
2022-08-31T01:57:51.127Z,94.46
2022-08-31T01:58:51.120Z,94.46
2022-08-31T01:59:51.112Z,94.46
2022-08-31T02:00:51.172Z,94.46
2022-08-31T02:01:51.164Z,94.46
2022-08-31T02:02:51.149Z,94.57
2022-08-31T02:03:51.060Z,94.57
2022-08-31T02:04:51.094Z,94.87
2022-08-31T02:05:51.041Z,94.51
2022-08-31T02:06:51.048Z,94.92
2022-08-31T02:07:51.016Z,95.32
2022-08-31T02:08:51.006Z,95.22
2022-08-31T02:09:50.994Z,95.53
2022-08-31T02:10:50.979Z,94.92
2022-08-31T02:11:50.992Z,94.82
2022-08-31T02:12:50.956Z,94.51
2022-08-31T02:13:50.947Z,94.71
2022-08-31T02:14:50.933Z,95.12
2022-08-31T02:15:50.956Z,95.02
2022-08-31T02:16:50.934Z,95.32
2022-08-31T02:17:52.770Z,94.76
2022-08-31T02:18:50.890Z,94.76
2022-08-31T02:19:50.880Z,94.96
2022-08-31T02:20:50.866Z,95.01
2022-08-31T02:21:50.878Z,95.51
2022-08-31T02:22:50.850Z,95.06
2022-08-31T02:23:50.835Z,95.51
2022-08-31T02:24:50.822Z,95.72
2022-08-31T02:25:50.812Z,95.98
2022-08-31T02:26:53.847Z,96.38
2022-08-31T02:27:50.789Z,96.48
2022-08-31T02:28:50.776Z,95.87
2022-08-31T02:29:50.768Z,96.18
2022-08-31T02:30:50.754Z,96.08
2022-08-31T02:31:50.811Z,96.18
2022-08-31T02:32:50.753Z,96.18
2022-08-31T02:33:50.727Z,96.08
2022-08-31T02:34:50.708Z,96.08
2022-08-31T02:35:53.611Z,96.28
2022-08-31T02:36:50.686Z,96.08
2022-08-31T02:37:50.697Z,96.02
2022-08-31T02:38:50.663Z,96.89
2022-08-31T02:39:50.652Z,96.59
2022-08-31T02:40:50.695Z,96.59
2022-08-31T02:41:50.630Z,96.08
2022-08-31T02:42:53.241Z,96.48
2022-08-31T02:43:50.608Z,95.87
2022-08-31T02:44:50.602Z,95.87
2022-08-31T02:45:51.003Z,96.23
2022-08-31T02:46:50.654Z,96.12
2022-08-31T02:47:50.586Z,96.12
2022-08-31T02:48:50.561Z,96.63
2022-08-31T02:49:50.569Z,97.14
2022-08-31T02:50:50.526Z,96.94
2022-08-31T02:51:50.741Z,97.34
2022-08-31T02:52:50.512Z,97.14
2022-08-31T02:53:50.493Z,97.14
2022-08-31T02:54:50.590Z,97.14
2022-08-31T02:55:50.512Z,97.34
2022-08-31T02:56:50.457Z,96.94
2022-08-31T02:57:50.448Z,97.24
2022-08-31T02:58:50.443Z,97.24
2022-08-31T02:59:50.476Z,96.83
2022-08-31T03:00:50.502Z,96.94
2022-08-31T03:01:50.449Z,96.94
2022-08-31T03:02:50.429Z,96.98
2022-08-31T03:03:50.379Z,97.39
2022-08-31T03:04:50.387Z,96.98
2022-08-31T03:05:50.357Z,97.19
2022-08-31T03:06:50.345Z,97.19
2022-08-31T03:07:50.333Z,96.78
2022-08-31T03:08:50.346Z,97.39
2022-08-31T03:09:50.315Z,97.29
2022-08-31T03:10:50.298Z,96.98
2022-08-31T03:11:50.288Z,96.98
2022-08-31T03:12:50.297Z,96.98
2022-08-31T03:13:50.268Z,96.88
2022-08-31T03:14:50.254Z,97.23
2022-08-31T03:15:50.274Z,97.44
2022-08-31T03:16:51.992Z,97.80
2022-08-31T03:17:50.219Z,98.10
2022-08-31T03:18:50.232Z,97.80
2022-08-31T03:19:50.197Z,98.10
2022-08-31T03:20:50.186Z,97.65
2022-08-31T03:21:55.815Z,98.10
2022-08-31T03:22:51.163Z,97.85
2022-08-31T03:23:50.171Z,97.85
2022-08-31T03:24:50.143Z,97.55
2022-08-31T03:25:50.131Z,97.44
2022-08-31T03:26:50.117Z,97.96
2022-08-31T03:27:50.107Z,97.65
2022-08-31T03:28:50.116Z,97.85
2022-08-31T03:29:50.105Z,97.96
2022-08-31T03:30:50.162Z,97.96
2022-08-31T03:31:50.073Z,98.05
2022-08-31T03:32:50.054Z,97.85
2022-08-31T03:33:50.043Z,97.75
2022-08-31T03:34:50.025Z,97.96
2022-08-31T03:35:50.039Z,97.96
2022-08-31T03:36:50.006Z,98.05
2022-08-31T03:37:50.028Z,97.96
2022-08-31T03:38:49.982Z,97.96
2022-08-31T03:39:50.006Z,97.96
2022-08-31T03:40:50.071Z,97.65
2022-08-31T03:41:49.948Z,97.85
2022-08-31T03:42:49.937Z,97.75
2022-08-31T03:43:49.964Z,97.75
2022-08-31T03:44:49.913Z,97.85
2022-08-31T03:45:50.012Z,98.05
2022-08-31T03:46:49.942Z,97.96
2022-08-31T03:47:49.880Z,97.96
2022-08-31T03:48:49.889Z,97.85
2022-08-31T03:49:49.876Z,98.16
2022-08-31T03:50:49.842Z,98.16
2022-08-31T03:51:49.839Z,98.01
2022-08-31T03:52:49.820Z,98.05
2022-08-31T03:53:49.810Z,98.05
2022-08-31T03:54:49.817Z,97.85
2022-08-31T03:55:49.789Z,97.75
2022-08-31T03:56:49.795Z,97.75
2022-08-31T03:57:49.766Z,97.96
2022-08-31T03:58:49.755Z,97.96
2022-08-31T03:59:49.744Z,97.80
2022-08-31T04:00:49.729Z,97.65
2022-08-31T04:01:49.794Z,97.96
2022-08-31T04:02:49.976Z,97.75
2022-08-31T04:03:49.696Z,97.96
2022-08-31T04:04:49.682Z,98.26
2022-08-31T04:05:49.759Z,98.86
2022-08-31T04:06:49.663Z,98.46
2022-08-31T04:07:49.672Z,98.66
2022-08-31T04:08:49.639Z,98.86
2022-08-31T04:09:49.636Z,98.16
2022-08-31T04:10:49.626Z,98.86
2022-08-31T04:11:52.015Z,97.85
2022-08-31T04:12:49.593Z,98.86
2022-08-31T04:13:49.600Z,98.66
2022-08-31T04:14:49.571Z,98.72
2022-08-31T04:15:49.585Z,98.97
2022-08-31T04:16:49.570Z,98.72
2022-08-31T04:17:52.165Z,99.07
2022-08-31T04:18:50.524Z,99.07
2022-08-31T04:19:49.514Z,98.86
2022-08-31T04:20:49.812Z,98.86
2022-08-31T04:21:49.492Z,98.72
2022-08-31T04:22:49.481Z,98.92
2022-08-31T04:23:49.473Z,98.82
2022-08-31T04:24:49.457Z,98.77
2022-08-31T04:25:49.467Z,98.72
2022-08-31T04:26:49.433Z,98.82
2022-08-31T04:27:49.427Z,98.72
2022-08-31T04:28:49.416Z,98.77
2022-08-31T04:29:49.405Z,98.72
2022-08-31T04:30:49.486Z,98.66
2022-08-31T04:31:49.379Z,98.62
2022-08-31T04:32:49.386Z,98.11
2022-08-31T04:33:49.356Z,98.82
2022-08-31T04:34:56.097Z,98.21
2022-08-31T04:35:50.334Z,98.21
2022-08-31T04:36:49.319Z,97.91
2022-08-31T04:37:49.356Z,98.11
2022-08-31T04:38:49.329Z,97.40
2022-08-31T04:39:50.853Z,97.60
2022-08-31T04:40:49.324Z,97.60
2022-08-31T04:41:49.266Z,98.11
2022-08-31T04:42:49.251Z,97.20
2022-08-31T04:43:49.276Z,97.30
2022-08-31T04:44:49.230Z,97.09
2022-08-31T04:45:49.295Z,96.99
2022-08-31T04:46:49.205Z,96.99
2022-08-31T04:47:49.199Z,96.69
2022-08-31T04:48:49.186Z,96.89
2022-08-31T04:49:49.198Z,96.89
2022-08-31T04:50:49.169Z,96.89
2022-08-31T04:51:49.173Z,97.09
2022-08-31T04:53:03.142Z,97.09
2022-08-31T04:53:50.125Z,97.09
2022-08-31T04:54:49.248Z,97.20
2022-08-31T04:55:49.107Z,97.09
2022-08-31T04:56:49.095Z,96.64
2022-08-31T04:57:49.083Z,96.95
2022-08-31T04:58:49.070Z,96.64
2022-08-31T04:59:49.080Z,97.05
2022-08-31T05:00:49.046Z,97.15
2022-08-31T05:01:49.200Z,96.95
2022-08-31T05:02:52.674Z,96.75
2022-08-31T05:03:49.016Z,96.75
2022-08-31T05:04:49.001Z,96.75
2022-08-31T05:05:48.991Z,96.54
2022-08-31T05:06:48.981Z,96.44
2022-08-31T05:07:48.992Z,96.03
2022-08-31T05:08:48.958Z,95.94
2022-08-31T05:09:48.946Z,96.03
2022-08-31T05:10:48.957Z,96.03
2022-08-31T05:11:48.947Z,96.14
2022-08-31T05:12:48.910Z,96.03
2022-08-31T05:13:48.919Z,96.23
2022-08-31T05:14:48.888Z,95.83
2022-08-31T05:15:50.587Z,95.73
2022-08-31T05:16:49.864Z,95.53
2022-08-31T05:17:48.856Z,95.83
2022-08-31T05:18:48.864Z,95.73
2022-08-31T05:19:48.834Z,95.83
2022-08-31T05:20:48.820Z,95.83
2022-08-31T05:21:48.836Z,95.83
2022-08-31T05:22:48.800Z,95.79
2022-08-31T05:23:48.794Z,95.18
2022-08-31T05:24:49.049Z,95.68
2022-08-31T05:25:48.768Z,95.68
2022-08-31T05:26:48.785Z,95.79
2022-08-31T05:27:48.743Z,95.74
2022-08-31T05:28:48.805Z,95.74
2022-08-31T05:29:48.720Z,95.84
2022-08-31T05:30:48.757Z,95.84
2022-08-31T05:31:52.178Z,95.23
2022-08-31T05:32:48.688Z,94.89
2022-08-31T05:33:48.700Z,95.09
2022-08-31T05:34:48.661Z,95.19
2022-08-31T05:35:48.659Z,95.09
2022-08-31T05:36:48.646Z,94.58
2022-08-31T05:37:48.629Z,94.78
2022-08-31T05:38:48.620Z,94.78
2022-08-31T05:39:48.627Z,94.54
2022-08-31T05:40:48.663Z,94.38
2022-08-31T05:41:48.583Z,94.13
2022-08-31T05:42:48.570Z,93.42
2022-08-31T05:43:48.582Z,93.62
2022-08-31T05:44:48.549Z,93.32
2022-08-31T05:45:48.539Z,93.22
2022-08-31T05:46:54.851Z,92.61
2022-08-31T05:47:49.514Z,92.51
2022-08-31T05:48:49.586Z,92.51
2022-08-31T05:49:48.495Z,92.41
2022-08-31T05:50:48.483Z,92.57
2022-08-31T05:51:48.490Z,92.61
2022-08-31T05:52:48.460Z,91.86
2022-08-31T05:53:48.457Z,91.66
2022-08-31T05:54:48.481Z,92.16
2022-08-31T05:55:48.424Z,91.86
2022-08-31T05:56:48.418Z,92.06
2022-08-31T05:57:48.433Z,92.06
2022-08-31T05:58:48.411Z,92.16
2022-08-31T05:59:48.397Z,91.55
2022-08-31T06:00:48.387Z,91.31
2022-08-31T06:01:48.406Z,91.61
2022-08-31T06:02:51.162Z,91.31
2022-08-31T06:03:49.353Z,91.31
2022-08-31T06:04:48.355Z,91.31
2022-08-31T06:05:48.313Z,91.00
2022-08-31T06:06:48.306Z,90.70
2022-08-31T06:07:48.287Z,90.25
2022-08-31T06:08:48.310Z,90.25
2022-08-31T06:09:48.265Z,90.45
2022-08-31T06:10:48.255Z,90.36
2022-08-31T06:11:48.244Z,90.86
2022-08-31T06:12:48.234Z,91.27
2022-08-31T06:13:48.220Z,91.00
2022-08-31T06:14:52.768Z,90.66
2022-08-31T06:15:49.220Z,90.86
2022-08-31T06:16:48.188Z,90.96
2022-08-31T06:17:48.176Z,91.16
2022-08-31T06:18:48.190Z,91.27
2022-08-31T06:19:48.155Z,90.96
2022-08-31T06:20:48.150Z,90.52
2022-08-31T06:21:50.444Z,90.62
2022-08-31T06:22:48.143Z,90.92
2022-08-31T06:23:48.129Z,90.45
2022-08-31T06:24:48.125Z,90.41
2022-08-31T06:25:48.108Z,91.42
2022-08-31T06:26:48.077Z,90.72
2022-08-31T06:27:48.063Z,90.52
2022-08-31T06:28:48.076Z,90.67
2022-08-31T06:29:48.040Z,90.37
2022-08-31T06:30:55.271Z,89.76
2022-08-31T06:31:49.058Z,90.07
2022-08-31T06:32:48.013Z,89.76
2022-08-31T06:33:47.995Z,89.16
2022-08-31T06:34:48.008Z,89.36
2022-08-31T06:35:47.974Z,89.46
2022-08-31T06:36:47.963Z,88.85
2022-08-31T06:37:47.974Z,89.16
2022-08-31T06:38:47.952Z,89.16
2022-08-31T06:39:47.930Z,89.06
2022-08-31T06:40:47.951Z,89.06
2022-08-31T06:41:47.905Z,88.96
2022-08-31T06:42:47.918Z,88.65
2022-08-31T06:43:47.883Z,88.35
2022-08-31T06:44:47.897Z,88.25
2022-08-31T06:45:47.936Z,88.45
2022-08-31T06:46:47.893Z,88.45
2022-08-31T06:47:47.839Z,88.41
2022-08-31T06:48:47.828Z,88.25
2022-08-31T06:49:47.817Z,88.10
2022-08-31T06:50:47.830Z,87.70
2022-08-31T06:51:47.814Z,88.61
2022-08-31T06:52:47.783Z,88.41
2022-08-31T06:53:47.770Z,87.50
2022-08-31T06:54:47.763Z,88.51
2022-08-31T06:55:47.768Z,88.21
2022-08-31T06:56:47.738Z,87.36
2022-08-31T06:57:47.724Z,87.66
2022-08-31T06:58:47.717Z,87.40
2022-08-31T06:59:47.725Z,87.66
2022-08-31T07:00:47.694Z,86.95
2022-08-31T07:01:47.700Z,86.75
2022-08-31T07:02:57.416Z,86.95
2022-08-31T07:03:48.655Z,86.61
2022-08-31T07:04:47.647Z,86.91
2022-08-31T07:05:47.654Z,86.51
2022-08-31T07:06:47.623Z,86.81
2022-08-31T07:07:47.611Z,86.00
2022-08-31T07:08:47.603Z,85.70
2022-08-31T07:09:47.588Z,85.56
2022-08-31T07:10:47.600Z,85.25
2022-08-31T07:11:47.566Z,84.95
2022-08-31T07:12:47.555Z,85.56
2022-08-31T07:13:47.546Z,84.95
2022-08-31T07:14:52.914Z,86.36
2022-08-31T07:15:48.539Z,86.36
2022-08-31T07:16:47.572Z,85.36
2022-08-31T07:17:47.504Z,85.16
2022-08-31T07:18:47.495Z,85.05
2022-08-31T07:19:47.482Z,84.35
2022-08-31T07:20:47.478Z,84.95
2022-08-31T07:21:47.484Z,84.41
2022-08-31T07:22:47.443Z,84.91
2022-08-31T07:23:47.431Z,84.95
2022-08-31T07:24:47.422Z,85.05
2022-08-31T07:25:47.407Z,84.65
2022-08-31T07:26:47.425Z,84.95
2022-08-31T07:27:47.515Z,84.95
2022-08-31T07:28:47.376Z,86.07
2022-08-31T07:29:47.382Z,85.05
2022-08-31T07:30:47.476Z,84.91
2022-08-31T07:31:47.339Z,84.95
2022-08-31T07:32:47.331Z,84.61
2022-08-31T07:33:47.337Z,84.91
2022-08-31T07:34:50.466Z,84.71
2022-08-31T07:35:48.292Z,84.51
2022-08-31T07:36:47.284Z,84.25
2022-08-31T07:37:47.272Z,84.95
2022-08-31T07:38:47.268Z,85.25
2022-08-31T07:39:47.249Z,85.25
2022-08-31T07:40:47.342Z,85.02
2022-08-31T07:41:47.228Z,84.71
2022-08-31T07:42:47.221Z,84.77
2022-08-31T07:43:47.222Z,84.17
2022-08-31T07:44:53.271Z,84.17
2022-08-31T07:45:48.251Z,83.56
2022-08-31T07:46:47.170Z,83.42
2022-08-31T07:47:47.209Z,82.82
2022-08-31T07:48:47.148Z,82.92
2022-08-31T07:49:47.135Z,83.02
2022-08-31T07:50:47.190Z,82.88
2022-08-31T07:51:47.113Z,82.68
2022-08-31T07:52:47.102Z,82.88
2022-08-31T07:53:47.089Z,82.98
2022-08-31T07:54:47.102Z,82.68
2022-08-31T07:55:47.067Z,82.92
2022-08-31T07:56:47.062Z,82.92
2022-08-31T07:57:47.046Z,82.82
2022-08-31T07:58:47.035Z,82.62
2022-08-31T07:59:47.045Z,82.56
2022-08-31T08:00:47.038Z,83.36
2022-08-31T08:01:47.070Z,83.80
2022-08-31T08:02:52.994Z,84.07
2022-08-31T08:03:47.976Z,84.21
2022-08-31T08:04:46.994Z,84.21
2022-08-31T08:05:46.957Z,84.17
2022-08-31T08:06:46.947Z,84.88
2022-08-31T08:07:54.619Z,84.77
2022-08-31T08:09:01.625Z,84.77
2022-08-31T08:09:47.926Z,84.21
2022-08-31T08:10:52.445Z,84.27
2022-08-31T08:11:47.884Z,84.71
2022-08-31T08:12:46.876Z,84.77
2022-08-31T08:13:46.884Z,83.97
2022-08-31T08:14:46.853Z,85.11
2022-08-31T08:15:46.938Z,84.57
2022-08-31T08:16:46.831Z,84.57
2022-08-31T08:17:46.837Z,84.88
2022-08-31T08:18:46.808Z,84.61
2022-08-31T08:19:46.796Z,84.88
2022-08-31T08:20:46.789Z,84.97
2022-08-31T08:21:46.773Z,85.17
2022-08-31T08:22:55.212Z,84.43
2022-08-31T08:23:47.759Z,83.12
2022-08-31T08:24:46.742Z,82.38
2022-08-31T08:25:47.267Z,82.64
2022-08-31T08:26:49.854Z,81.63
2022-08-31T08:27:47.725Z,81.13
2022-08-31T08:28:46.701Z,81.09
2022-08-31T08:29:46.685Z,81.15
2022-08-31T08:30:46.673Z,80.85
2022-08-31T08:31:46.806Z,81.26
2022-08-31T08:32:46.650Z,80.45
2022-08-31T08:33:46.667Z,80.01
2022-08-31T08:34:46.627Z,80.45
2022-08-31T08:35:46.615Z,79.61
2022-08-31T08:36:46.607Z,79.61
2022-08-31T08:38:04.393Z,78.40
2022-08-31T08:38:47.603Z,78.00
2022-08-31T08:39:46.573Z,77.26
2022-08-31T08:40:46.737Z,74.24
2022-08-31T08:41:46.550Z,73.71
2022-08-31T08:42:46.538Z,74.61
2022-08-31T08:43:52.260Z,74.68
2022-08-31T08:44:47.513Z,73.67
2022-08-31T08:45:46.573Z,73.03
2022-08-31T08:46:46.589Z,72.94
2022-08-31T08:47:46.543Z,71.70
2022-08-31T08:48:46.495Z,71.50
2022-08-31T08:49:52.128Z,70.96
2022-08-31T08:50:47.446Z,71.80
2022-08-31T08:51:46.434Z,70.79
2022-08-31T08:52:46.445Z,68.96
2022-08-31T08:53:46.434Z,68.62
2022-08-31T08:54:46.405Z,69.36
2022-08-31T08:55:46.393Z,71.80
2022-08-31T08:56:46.381Z,71.83
2022-08-31T08:57:46.370Z,71.73
2022-08-31T08:58:46.358Z,70.29
2022-08-31T08:59:47.098Z,70.06
2022-08-31T09:00:46.343Z,69.26
2022-08-31T09:01:46.406Z,67.82
2022-08-31T09:02:46.361Z,68.13
2022-08-31T09:03:46.300Z,67.79
2022-08-31T09:04:46.313Z,67.29
2022-08-31T09:05:46.279Z,66.99
2022-08-31T09:06:48.327Z,67.06
2022-08-31T09:07:46.277Z,66.53
2022-08-31T09:08:46.248Z,65.73
2022-08-31T09:09:46.235Z,64.53
2022-08-31T09:10:46.225Z,64.40
2022-08-31T09:11:46.212Z,64.40
2022-08-31T09:12:46.203Z,64.20
2022-08-31T09:13:46.209Z,63.70
2022-08-31T09:14:46.180Z,63.67
2022-08-31T09:15:46.221Z,63.07
2022-08-31T09:16:46.157Z,62.94
2022-08-31T09:17:46.144Z,62.24
2022-08-31T09:18:46.453Z,63.07
2022-08-31T09:19:46.120Z,61.77
2022-08-31T09:20:46.115Z,62.10
2022-08-31T09:21:46.104Z,63.13
2022-08-31T09:22:46.091Z,62.86
2022-08-31T09:23:46.096Z,63.36
2022-08-31T09:24:48.611Z,62.79
2022-08-31T09:25:47.051Z,63.39
2022-08-31T09:26:46.043Z,63.17
2022-08-31T09:27:46.030Z,61.87
2022-08-31T09:28:46.052Z,62.43
2022-08-31T09:29:46.008Z,61.63
2022-08-31T09:30:46.078Z,61.10
2022-08-31T09:31:46.040Z,60.88
2022-08-31T09:32:45.993Z,60.71
2022-08-31T09:33:45.960Z,61.47
2022-08-31T09:34:45.952Z,60.68
2022-08-31T09:35:45.957Z,61.00
2022-08-31T09:36:45.927Z,61.18
2022-08-31T09:37:45.920Z,60.05
2022-08-31T09:38:45.924Z,59.65
2022-08-31T09:39:45.892Z,60.52
2022-08-31T09:40:45.950Z,60.52
2022-08-31T09:41:45.870Z,60.79
2022-08-31T09:42:45.860Z,59.59
2022-08-31T09:43:45.848Z,60.66
2022-08-31T09:44:45.865Z,61.06
2022-08-31T09:45:45.892Z,60.11
2022-08-31T09:46:45.819Z,58.91
2022-08-31T09:47:45.805Z,57.52
2022-08-31T09:48:45.802Z,58.09
2022-08-31T09:49:45.782Z,57.49
2022-08-31T09:50:45.797Z,56.89
2022-08-31T09:51:45.763Z,56.89
2022-08-31T09:52:45.754Z,57.69
2022-08-31T09:53:45.757Z,56.96
2022-08-31T09:54:47.294Z,56.70
2022-08-31T09:55:45.724Z,55.30
2022-08-31T09:56:45.706Z,56.07
2022-08-31T09:57:45.695Z,56.59
2022-08-31T09:58:45.705Z,55.90
2022-08-31T09:59:45.673Z,56.17
2022-08-31T10:00:45.663Z,56.00
2022-08-31T10:01:45.853Z,55.57
2022-08-31T10:02:45.639Z,55.08
2022-08-31T10:03:45.646Z,56.27
2022-08-31T10:04:45.643Z,55.44
2022-08-31T10:05:45.607Z,55.55
2022-08-31T10:06:45.593Z,53.98
2022-08-31T10:07:45.584Z,54.97
2022-08-31T10:08:45.591Z,55.10
2022-08-31T10:09:45.564Z,54.93
2022-08-31T10:10:45.913Z,55.65
2022-08-31T10:11:45.542Z,57.24
2022-08-31T10:12:45.548Z,56.75
2022-08-31T10:13:45.518Z,56.98
2022-08-31T10:14:45.505Z,56.65
2022-08-31T10:15:45.548Z,56.23
2022-08-31T10:16:45.534Z,57.12
2022-08-31T10:17:45.472Z,56.70
2022-08-31T10:18:45.460Z,56.70
2022-08-31T10:19:45.453Z,56.72
2022-08-31T10:20:45.461Z,56.00
2022-08-31T10:21:45.431Z,55.08
2022-08-31T10:22:45.435Z,55.47
2022-08-31T10:23:45.407Z,55.25
2022-08-31T10:24:45.394Z,55.05
2022-08-31T10:25:45.385Z,54.85
2022-08-31T10:26:45.426Z,54.03
2022-08-31T10:27:45.361Z,54.03
2022-08-31T10:28:45.358Z,54.03
2022-08-31T10:29:45.339Z,54.13
2022-08-31T10:30:45.385Z,55.12
2022-08-31T10:31:48.749Z,54.48
2022-08-31T10:32:45.325Z,54.93
2022-08-31T10:33:45.298Z,55.82
2022-08-31T10:34:45.288Z,57.02
2022-08-31T10:35:45.272Z,55.76
2022-08-31T10:36:45.263Z,56.05
2022-08-31T10:37:45.270Z,55.55
2022-08-31T10:38:45.239Z,55.65
2022-08-31T10:39:45.232Z,54.88
2022-08-31T10:40:45.273Z,54.68
2022-08-31T10:41:45.216Z,54.98
2022-08-31T10:42:45.214Z,54.98
2022-08-31T10:43:45.185Z,55.65
2022-08-31T10:44:50.011Z,55.18
2022-08-31T10:45:46.161Z,55.08
2022-08-31T10:46:45.224Z,55.68
2022-08-31T10:47:45.163Z,55.46
2022-08-31T10:48:45.130Z,54.98
2022-08-31T10:49:45.119Z,56.48
2022-08-31T10:50:45.135Z,56.35
2022-08-31T10:51:45.099Z,54.96
2022-08-31T10:52:45.110Z,55.05
2022-08-31T10:53:45.074Z,56.32
2022-08-31T10:54:45.060Z,54.90
2022-08-31T10:55:45.073Z,54.71
2022-08-31T10:56:45.040Z,55.13
2022-08-31T10:57:45.050Z,54.73
2022-08-31T10:58:45.017Z,54.79
2022-08-31T10:59:45.986Z,57.00
2022-08-31T11:00:44.994Z,56.68
2022-08-31T11:01:45.033Z,54.98
2022-08-31T11:02:44.977Z,55.01
2022-08-31T11:03:44.964Z,55.61
2022-08-31T11:04:45.061Z,56.38
2022-08-31T11:05:48.651Z,54.98
2022-08-31T11:06:45.941Z,55.16
2022-08-31T11:07:44.921Z,54.83
2022-08-31T11:08:44.940Z,54.73
2022-08-31T11:09:44.897Z,55.03
2022-08-31T11:10:44.901Z,54.46
2022-08-31T11:11:44.875Z,54.08
2022-08-31T11:12:44.862Z,54.28
2022-08-31T11:13:49.127Z,54.38
2022-08-31T11:14:44.846Z,54.98
2022-08-31T11:15:44.885Z,55.18
2022-08-31T11:16:44.815Z,54.41
2022-08-31T11:17:44.805Z,54.61
2022-08-31T11:18:44.813Z,54.83
2022-08-31T11:19:44.787Z,55.13
2022-08-31T11:20:44.810Z,56.30
2022-08-31T11:21:44.764Z,56.38
2022-08-31T11:22:44.750Z,55.18
2022-08-31T11:23:45.364Z,55.38
2022-08-31T11:24:44.731Z,56.15
2022-08-31T11:25:44.745Z,55.55
2022-08-31T11:26:44.706Z,54.63
2022-08-31T11:27:44.696Z,54.88
2022-08-31T11:28:44.683Z,53.09
2022-08-31T11:29:44.673Z,53.76
2022-08-31T11:30:44.861Z,54.13
2022-08-31T11:31:45.729Z,52.19
2022-08-31T11:32:44.641Z,52.79
2022-08-31T11:34:06.007Z,52.76
2022-08-31T11:34:45.617Z,52.76
2022-08-31T11:35:44.609Z,52.24
2022-08-31T11:36:44.661Z,52.24
2022-08-31T11:37:44.585Z,53.04
2022-08-31T11:38:44.582Z,51.47
2022-08-31T11:39:44.667Z,51.97
2022-08-31T11:40:44.651Z,52.17
2022-08-31T11:41:44.541Z,52.56
2022-08-31T11:42:44.759Z,52.19
2022-08-31T11:43:44.747Z,52.26
2022-08-31T11:44:44.507Z,53.63
2022-08-31T11:45:44.566Z,52.02
2022-08-31T11:46:44.743Z,51.03
2022-08-31T11:47:44.482Z,51.50
2022-08-31T11:48:44.466Z,51.10
2022-08-31T11:49:44.456Z,51.37
2022-08-31T11:50:44.445Z,50.90
2022-08-31T11:51:44.456Z,51.52
2022-08-31T11:52:44.427Z,51.23
2022-08-31T11:53:44.596Z,51.35
2022-08-31T11:54:44.418Z,51.75
2022-08-31T11:55:44.408Z,51.84
2022-08-31T11:56:44.381Z,51.17
2022-08-31T11:57:44.388Z,52.39
2022-08-31T11:58:44.362Z,52.37
2022-08-31T11:59:44.372Z,52.39
2022-08-31T12:00:44.333Z,51.70
2022-08-31T12:01:45.322Z,52.42
2022-08-31T12:02:44.399Z,52.42
2022-08-31T12:03:44.341Z,53.64
2022-08-31T12:04:44.294Z,54.36
2022-08-31T12:05:44.324Z,54.73
2022-08-31T12:06:44.266Z,53.94
2022-08-31T12:07:44.255Z,53.16
2022-08-31T12:08:44.265Z,54.16
2022-08-31T12:09:44.240Z,53.78
2022-08-31T12:10:44.263Z,54.91
2022-08-31T12:11:44.211Z,55.01
2022-08-31T12:12:44.221Z,54.74
2022-08-31T12:13:44.196Z,55.06
2022-08-31T12:14:44.180Z,54.76
2022-08-31T12:15:44.264Z,56.29
2022-08-31T12:16:44.176Z,57.18
2022-08-31T12:17:44.150Z,56.98
2022-08-31T12:18:44.139Z,54.99
2022-08-31T12:19:44.131Z,57.28
2022-08-31T12:20:44.115Z,56.98
2022-08-31T12:21:44.128Z,56.59
2022-08-31T12:22:44.091Z,57.11
2022-08-31T12:23:44.114Z,58.21
2022-08-31T12:24:49.036Z,57.81
2022-08-31T12:25:45.059Z,58.01
2022-08-31T12:26:45.433Z,58.41
2022-08-31T12:27:44.043Z,58.81
2022-08-31T12:28:44.051Z,57.71
2022-08-31T12:29:44.014Z,57.74
2022-08-31T12:30:44.038Z,57.74
2022-08-31T12:31:43.996Z,57.87
2022-08-31T12:32:43.978Z,58.47
2022-08-31T12:33:43.968Z,58.89
2022-08-31T12:34:43.956Z,58.26
2022-08-31T12:35:43.968Z,58.97
2022-08-31T12:36:43.933Z,59.17
2022-08-31T12:37:43.921Z,59.36
2022-08-31T12:38:43.930Z,58.97
2022-08-31T12:39:43.902Z,58.97
2022-08-31T12:40:43.982Z,59.36
2022-08-31T12:41:43.899Z,58.47
2022-08-31T12:42:44.973Z,58.99
2022-08-31T12:43:43.860Z,59.09
2022-08-31T12:44:43.844Z,58.99
2022-08-31T12:45:43.833Z,59.39
2022-08-31T12:46:43.959Z,59.19
2022-08-31T12:47:43.809Z,59.59
2022-08-31T12:48:43.799Z,59.17
2022-08-31T12:49:43.788Z,59.19
2022-08-31T12:50:43.777Z,59.06
2022-08-31T12:51:43.786Z,58.86
2022-08-31T12:52:43.754Z,58.14